createdAt,value
2016-10-04T00:00:30.958Z,0
2016-10-04T00:01:31.173Z,0
2016-10-04T00:02:30.871Z,0
2016-10-04T00:03:31.466Z,0
2016-10-04T00:04:30.541Z,0
2016-10-04T00:05:31.121Z,0
2016-10-04T00:06:32.116Z,0
2016-10-04T00:07:30.567Z,0
2016-10-04T00:08:31.450Z,0
2016-10-04T00:09:31.080Z,0
2016-10-04T00:10:31.931Z,0
2016-10-04T00:11:30.869Z,0
2016-10-04T00:12:31.110Z,0
2016-10-04T00:13:32.854Z,0
2016-10-04T00:14:31.110Z,0
2016-10-04T00:15:30.824Z,0
2016-10-04T00:16:31.287Z,0
2016-10-04T00:17:30.530Z,0
2016-10-04T00:18:31.776Z,0
2016-10-04T00:19:31.788Z,0
2016-10-04T00:20:31.509Z,0
2016-10-04T00:21:31.495Z,0
2016-10-04T00:22:30.443Z,0
2016-10-04T00:23:31.271Z,0
2016-10-04T00:24:31.563Z,0
2016-10-04T00:25:30.527Z,0
2016-10-04T00:26:30.840Z,0
2016-10-04T00:27:31.716Z,0
2016-10-04T00:28:30.734Z,0
2016-10-04T00:29:31.692Z,0
2016-10-04T00:30:31.692Z,0
2016-10-04T00:31:32.253Z,0
2016-10-04T00:32:31.245Z,0
2016-10-04T00:33:31.496Z,0
2016-10-04T00:34:30.757Z,0
2016-10-04T00:35:31.992Z,0
2016-10-04T00:36:31.501Z,0
2016-10-04T00:37:31.802Z,0
2016-10-04T00:38:32.084Z,0
2016-10-04T00:39:31.301Z,0
2016-10-04T00:40:32.064Z,0
2016-10-04T00:41:31.968Z,0
2016-10-04T00:42:31.054Z,0
2016-10-04T00:43:31.698Z,0
2016-10-04T00:44:31.936Z,0
2016-10-04T00:45:31.712Z,0
2016-10-04T00:46:30.948Z,0
2016-10-04T00:47:31.669Z,0
2016-10-04T00:48:30.830Z,0
2016-10-04T00:49:31.420Z,0
2016-10-04T00:50:32.299Z,0
2016-10-04T00:51:31.487Z,0
2016-10-04T00:52:31.550Z,0
2016-10-04T00:53:31.391Z,0
2016-10-04T00:54:32.168Z,0
2016-10-04T00:55:31.997Z,0
2016-10-04T00:56:31.746Z,0
2016-10-04T00:57:32.371Z,0
2016-10-04T00:58:32.660Z,0
2016-10-04T00:59:31.523Z,0
2016-10-04T01:00:31.980Z,0
2016-10-04T01:01:31.745Z,0
2016-10-04T01:02:31.522Z,0
2016-10-04T01:03:31.531Z,0
2016-10-04T01:04:31.811Z,0
2016-10-04T01:05:32.673Z,0
2016-10-04T01:06:31.872Z,0
2016-10-04T01:07:32.327Z,0
2016-10-04T01:08:32.915Z,0
2016-10-04T01:09:33.322Z,0
2016-10-04T01:10:32.470Z,0
2016-10-04T01:11:32.626Z,0
2016-10-04T01:12:31.574Z,0
2016-10-04T01:13:32.945Z,0
2016-10-04T01:14:32.243Z,0
2016-10-04T01:15:32.203Z,0
2016-10-04T01:16:33.554Z,0
2016-10-04T01:17:32.101Z,0
2016-10-04T01:18:31.967Z,0
2016-10-04T01:19:31.584Z,0
2016-10-04T01:20:33.433Z,0
2016-10-04T01:21:31.678Z,0
2016-10-04T01:22:32.232Z,0
2016-10-04T01:23:32.113Z,0
2016-10-04T01:24:34.084Z,0
2016-10-04T01:25:32.023Z,0
2016-10-04T01:26:32.264Z,0
2016-10-04T01:27:32.310Z,0
2016-10-04T01:28:32.665Z,0
2016-10-04T01:29:33.218Z,0
2016-10-04T01:30:32.105Z,0
2016-10-04T01:31:33.170Z,0
2016-10-04T01:32:32.513Z,0
2016-10-04T01:33:32.556Z,0
2016-10-04T01:34:32.616Z,0
2016-10-04T01:35:33.013Z,0
2016-10-04T01:36:34.175Z,0
2016-10-04T01:37:32.694Z,0
2016-10-04T01:38:32.982Z,0
2016-10-04T01:39:33.748Z,0
2016-10-04T01:40:32.134Z,0
2016-10-04T01:41:33.966Z,0
2016-10-04T01:42:32.895Z,0
2016-10-04T01:43:33.513Z,0
2016-10-04T01:44:34.021Z,0
2016-10-04T01:45:33.097Z,0
2016-10-04T01:46:33.177Z,0
2016-10-04T01:47:33.610Z,0
2016-10-04T01:48:32.975Z,0
2016-10-04T01:49:34.033Z,0
2016-10-04T01:50:33.083Z,0
2016-10-04T01:51:32.441Z,0
2016-10-04T01:52:32.329Z,0
2016-10-04T01:53:33.130Z,0
2016-10-04T01:54:33.109Z,0
2016-10-04T01:55:33.776Z,0
2016-10-04T01:56:33.308Z,0
2016-10-04T01:57:32.696Z,0
2016-10-04T01:58:32.556Z,0
2016-10-04T01:59:33.070Z,0
2016-10-04T02:00:33.362Z,0
2016-10-04T02:01:34.203Z,0
2016-10-04T02:02:34.149Z,0
2016-10-04T02:03:33.462Z,0
2016-10-04T02:04:32.832Z,0
2016-10-04T02:05:33.801Z,0
2016-10-04T02:06:33.195Z,0
2016-10-04T02:07:33.752Z,0
2016-10-04T02:08:34.321Z,0
2016-10-04T02:09:32.613Z,0
2016-10-04T02:10:33.841Z,0
2016-10-04T02:11:33.122Z,0
2016-10-04T02:12:34.195Z,0
2016-10-04T02:13:33.737Z,0
2016-10-04T02:14:33.041Z,0
2016-10-04T02:15:33.779Z,0
2016-10-04T02:16:34.557Z,0
2016-10-04T02:17:33.378Z,0
2016-10-04T02:18:33.681Z,0
2016-10-04T02:19:32.793Z,0
2016-10-04T02:20:34.262Z,0
2016-10-04T02:21:33.034Z,0
2016-10-04T02:22:32.970Z,0
2016-10-04T02:23:33.608Z,0
2016-10-04T02:24:32.981Z,0
2016-10-04T02:25:33.636Z,0
2016-10-04T02:26:33.804Z,0
2016-10-04T02:27:33.051Z,0
2016-10-04T02:28:34.307Z,0
2016-10-04T02:29:33.551Z,0
2016-10-04T02:30:33.573Z,0
2016-10-04T02:31:34.151Z,0
2016-10-04T02:32:33.549Z,0
2016-10-04T02:33:34.125Z,0
2016-10-04T02:34:34.893Z,0
2016-10-04T02:35:33.104Z,0
2016-10-04T02:36:33.546Z,0
2016-10-04T02:37:34.504Z,0
2016-10-04T02:38:33.501Z,0
2016-10-04T02:39:33.436Z,0
2016-10-04T02:40:33.386Z,0
2016-10-04T02:41:34.629Z,0
2016-10-04T02:42:33.742Z,0
2016-10-04T02:43:33.469Z,0
2016-10-04T02:44:33.946Z,0
2016-10-04T02:45:34.092Z,0
2016-10-04T02:46:34.030Z,0
2016-10-04T02:47:33.509Z,0
2016-10-04T02:48:33.425Z,0
2016-10-04T02:49:34.298Z,0
2016-10-04T02:50:34.075Z,0
2016-10-04T02:51:34.122Z,0
2016-10-04T02:52:34.325Z,0
2016-10-04T02:53:34.122Z,0
2016-10-04T02:54:34.512Z,0
2016-10-04T02:55:34.493Z,0
2016-10-04T02:56:33.940Z,0
2016-10-04T02:57:33.922Z,0
2016-10-04T02:58:34.413Z,0
2016-10-04T02:59:34.910Z,0
2016-10-04T03:00:34.696Z,0
2016-10-04T03:01:33.941Z,0
2016-10-04T03:02:33.591Z,0
2016-10-04T03:03:35.236Z,0
2016-10-04T03:04:35.056Z,0
2016-10-04T03:05:34.789Z,0
2016-10-04T03:06:34.386Z,0
2016-10-04T03:07:33.779Z,0
2016-10-04T03:08:34.434Z,0
2016-10-04T03:09:34.707Z,0
2016-10-04T03:10:34.733Z,0
2016-10-04T03:11:34.828Z,0
2016-10-04T03:12:34.624Z,0
2016-10-04T03:13:35.062Z,0
2016-10-04T03:14:35.674Z,0
2016-10-04T03:15:34.851Z,0
2016-10-04T03:16:34.285Z,0
2016-10-04T03:17:34.508Z,0
2016-10-04T03:18:35.182Z,0
2016-10-04T03:19:35.213Z,0
2016-10-04T03:20:34.227Z,0
2016-10-04T03:21:34.567Z,0
2016-10-04T03:22:34.585Z,0
2016-10-04T03:23:34.165Z,0
2016-10-04T03:24:34.008Z,0
2016-10-04T03:25:35.704Z,0
2016-10-04T03:26:34.219Z,0
2016-10-04T03:27:34.968Z,0
2016-10-04T03:28:34.550Z,0
2016-10-04T03:29:34.196Z,0
2016-10-04T03:30:34.720Z,0
2016-10-04T03:31:34.136Z,0
2016-10-04T03:32:35.219Z,0
2016-10-04T03:33:35.950Z,0
2016-10-04T03:34:35.059Z,0
2016-10-04T03:35:36.376Z,0
2016-10-04T03:36:36.059Z,0
2016-10-04T03:37:34.847Z,0
2016-10-04T03:38:35.070Z,0
2016-10-04T03:39:34.553Z,0
2016-10-04T03:40:35.466Z,0
2016-10-04T03:41:35.150Z,0
2016-10-04T03:42:35.553Z,0
2016-10-04T03:43:35.067Z,0
2016-10-04T03:44:35.348Z,0
2016-10-04T03:45:34.818Z,0
2016-10-04T03:46:35.102Z,0
2016-10-04T03:47:34.744Z,0
2016-10-04T03:48:34.944Z,0
2016-10-04T03:49:35.753Z,0
2016-10-04T03:50:35.321Z,0
2016-10-04T03:51:34.949Z,0
2016-10-04T03:52:35.144Z,0
2016-10-04T03:53:35.817Z,0
2016-10-04T03:54:35.446Z,0
2016-10-04T03:55:35.655Z,0
2016-10-04T03:56:35.115Z,0
2016-10-04T03:57:35.296Z,0
2016-10-04T03:58:36.175Z,0
2016-10-04T03:59:34.591Z,0
2016-10-04T04:00:34.793Z,0
2016-10-04T04:01:35.444Z,0
2016-10-04T04:02:35.429Z,0
2016-10-04T04:03:35.832Z,0
2016-10-04T04:04:36.239Z,0
2016-10-04T04:05:35.396Z,0
2016-10-04T04:06:36.703Z,0
2016-10-04T04:07:36.007Z,0
2016-10-04T04:08:37.004Z,0
2016-10-04T04:09:35.076Z,0
2016-10-04T04:11:35.590Z,0
2016-10-04T04:12:35.808Z,0
2016-10-04T04:13:36.788Z,0
2016-10-04T04:14:35.167Z,0
2016-10-04T04:15:36.096Z,0
2016-10-04T04:16:35.588Z,0
2016-10-04T04:17:35.022Z,0
2016-10-04T04:18:36.116Z,0
2016-10-04T04:19:35.168Z,0
2016-10-04T04:20:36.201Z,0
2016-10-04T04:21:36.040Z,0
2016-10-04T04:22:35.914Z,0
2016-10-04T04:23:35.690Z,0
2016-10-04T04:24:35.813Z,0
2016-10-04T04:25:35.537Z,0
2016-10-04T04:26:36.432Z,0
2016-10-04T04:27:35.330Z,0
2016-10-04T04:28:35.970Z,0
2016-10-04T04:29:35.954Z,0
2016-10-04T04:30:36.833Z,0
2016-10-04T04:31:36.107Z,0
2016-10-04T04:32:35.685Z,0
2016-10-04T04:33:35.818Z,0
2016-10-04T04:34:36.630Z,0
2016-10-04T04:35:36.552Z,0
2016-10-04T04:36:35.821Z,0
2016-10-04T04:37:36.858Z,0
2016-10-04T04:38:35.312Z,0
2016-10-04T04:39:35.494Z,0
2016-10-04T04:40:35.565Z,0
2016-10-04T04:41:36.451Z,0
2016-10-04T04:42:36.273Z,0
2016-10-04T04:43:36.523Z,0
2016-10-04T04:44:37.226Z,0
2016-10-04T04:45:35.337Z,0
2016-10-04T04:46:36.053Z,0
2016-10-04T04:47:36.153Z,0
2016-10-04T04:48:36.329Z,0
2016-10-04T04:49:36.357Z,0
2016-10-04T04:50:35.906Z,0
2016-10-04T04:51:37.189Z,0
2016-10-04T04:52:36.205Z,0
2016-10-04T04:53:36.648Z,0
2016-10-04T04:54:36.581Z,0
2016-10-04T04:55:35.646Z,0
2016-10-04T04:56:36.730Z,0
2016-10-04T04:57:37.751Z,0
2016-10-04T04:58:35.875Z,0
2016-10-04T04:59:36.846Z,0
2016-10-04T05:00:37.027Z,0
2016-10-04T05:01:35.564Z,0
2016-10-04T05:02:37.758Z,4
2016-10-04T05:03:36.795Z,4
2016-10-04T05:04:36.268Z,4
2016-10-04T05:05:37.178Z,4
2016-10-04T05:06:36.079Z,4
2016-10-04T05:07:36.333Z,0
2016-10-04T05:08:36.954Z,4
2016-10-04T05:09:37.776Z,8
2016-10-04T05:10:36.537Z,4
2016-10-04T05:11:36.993Z,8
2016-10-04T05:12:36.403Z,12
2016-10-04T05:13:35.776Z,16
2016-10-04T05:14:36.034Z,16
2016-10-04T05:15:35.928Z,20
2016-10-04T05:16:35.969Z,24
2016-10-04T05:17:36.126Z,28
2016-10-04T05:18:36.072Z,28
2016-10-04T05:19:36.989Z,36
2016-10-04T05:20:36.440Z,36
2016-10-04T05:21:36.877Z,48
2016-10-04T05:22:37.714Z,48
2016-10-04T05:23:36.945Z,60
2016-10-04T05:24:38.413Z,76
2016-10-04T05:25:36.148Z,80
2016-10-04T05:26:37.767Z,80
2016-10-04T05:27:36.218Z,108
2016-10-04T05:28:36.910Z,160
2016-10-04T05:29:37.424Z,136
2016-10-04T05:30:37.960Z,132
2016-10-04T05:31:36.854Z,172
2016-10-04T05:32:37.375Z,192
2016-10-04T05:33:37.048Z,228
2016-10-04T05:34:36.624Z,276
2016-10-04T05:35:37.523Z,268
2016-10-04T05:36:36.559Z,224
2016-10-04T05:37:37.081Z,212
2016-10-04T05:38:36.970Z,192
2016-10-04T05:39:36.893Z,224
2016-10-04T05:40:36.303Z,256
2016-10-04T05:41:36.432Z,380
2016-10-04T05:42:37.437Z,496
2016-10-04T05:43:37.171Z,560
2016-10-04T05:44:36.677Z,672
2016-10-04T05:45:38.312Z,748
2016-10-04T05:46:37.503Z,844
2016-10-04T05:47:37.303Z,972
2016-10-04T05:48:38.666Z,1000
2016-10-04T05:49:37.898Z,1004
2016-10-04T05:50:37.541Z,1004
2016-10-04T05:51:38.123Z,1044
2016-10-04T05:52:37.836Z,1128
2016-10-04T05:53:38.170Z,1228
2016-10-04T05:54:37.421Z,1320
2016-10-04T05:55:38.171Z,1312
2016-10-04T05:56:38.000Z,1184
2016-10-04T05:57:37.539Z,996
2016-10-04T05:58:37.135Z,844
2016-10-04T05:59:36.723Z,992
2016-10-04T06:00:36.803Z,1640
2016-10-04T06:01:36.771Z,1948
2016-10-04T06:02:38.106Z,2136
2016-10-04T06:03:37.522Z,2200
2016-10-04T06:04:38.138Z,2196
2016-10-04T06:05:37.641Z,2132
2016-10-04T06:06:39.220Z,1832
2016-10-04T06:07:37.810Z,1672
2016-10-04T06:08:38.821Z,2140
2016-10-04T06:09:38.263Z,2392
2016-10-04T06:10:38.127Z,2344
2016-10-04T06:11:37.662Z,2816
2016-10-04T06:12:38.423Z,3140
2016-10-04T06:13:37.487Z,3040
2016-10-04T06:14:38.198Z,2916
2016-10-04T06:15:37.843Z,3100
2016-10-04T06:16:38.586Z,2872
2016-10-04T06:17:38.493Z,2312
2016-10-04T06:18:38.015Z,1932
2016-10-04T06:19:37.187Z,1808
2016-10-04T06:20:37.603Z,2344
2016-10-04T06:21:38.565Z,2632
2016-10-04T06:22:38.483Z,2344
2016-10-04T06:23:38.092Z,2172
2016-10-04T06:24:37.261Z,1852
2016-10-04T06:25:38.669Z,1900
2016-10-04T06:26:40.381Z,1948
2016-10-04T06:27:38.046Z,2060
2016-10-04T06:28:38.401Z,1812
2016-10-04T06:29:38.027Z,1636
2016-10-04T06:30:38.478Z,1864
2016-10-04T06:31:38.462Z,1920
2016-10-04T06:32:38.244Z,1760
2016-10-04T06:33:38.577Z,1860
2016-10-04T06:34:38.805Z,2436
2016-10-04T06:35:37.399Z,2500
2016-10-04T06:36:40.661Z,2460
2016-10-04T06:37:37.711Z,3180
2016-10-04T06:38:38.655Z,3904
2016-10-04T06:39:37.394Z,4080
2016-10-04T06:40:37.929Z,4108
2016-10-04T06:41:38.492Z,4496
2016-10-04T06:42:39.625Z,4724
2016-10-04T06:43:38.670Z,4868
2016-10-04T06:44:38.090Z,5088
2016-10-04T06:45:38.550Z,5156
2016-10-04T06:46:38.090Z,5504
2016-10-04T06:47:38.234Z,5560
2016-10-04T06:48:38.136Z,5412
2016-10-04T06:49:38.177Z,5196
2016-10-04T06:50:38.986Z,4932
2016-10-04T06:51:39.341Z,4828
2016-10-04T06:52:39.071Z,4800
2016-10-04T06:53:38.579Z,4848
2016-10-04T06:54:38.918Z,4748
2016-10-04T06:55:38.760Z,4748
2016-10-04T06:56:38.669Z,4876
2016-10-04T06:57:40.178Z,5044
2016-10-04T06:58:38.585Z,5152
2016-10-04T06:59:39.184Z,5156
2016-10-04T07:00:38.233Z,5096
2016-10-04T07:01:38.504Z,5220
2016-10-04T07:02:38.781Z,5480
2016-10-04T07:03:38.701Z,5696
2016-10-04T07:04:39.074Z,5704
2016-10-04T07:05:40.305Z,5684
2016-10-04T07:06:39.151Z,5764
2016-10-04T07:07:39.587Z,6020
2016-10-04T07:08:39.649Z,6324
2016-10-04T07:09:40.124Z,6480
2016-10-04T07:10:38.588Z,6728
2016-10-04T07:11:39.576Z,7108
2016-10-04T07:12:39.509Z,7416
2016-10-04T07:13:39.637Z,7628
2016-10-04T07:14:38.876Z,8364
2016-10-04T07:15:39.563Z,9676
2016-10-04T07:16:38.912Z,10156
2016-10-04T07:17:38.334Z,10044
2016-10-04T07:18:38.751Z,10520
2016-10-04T07:19:40.771Z,10752
2016-10-04T07:20:40.313Z,11352
2016-10-04T07:21:39.731Z,9828
2016-10-04T07:22:39.915Z,11120
2016-10-04T07:23:39.106Z,10064
2016-10-04T07:24:39.913Z,8732
2016-10-04T07:25:39.122Z,8416
2016-10-04T07:26:39.185Z,8940
2016-10-04T07:27:39.151Z,9012
2016-10-04T07:28:40.376Z,8568
2016-10-04T07:29:39.994Z,9112
2016-10-04T07:30:40.747Z,9668
2016-10-04T07:31:39.022Z,8496
2016-10-04T07:32:39.577Z,7748
2016-10-04T07:33:39.870Z,8092
2016-10-04T07:34:38.941Z,10784
2016-10-04T07:35:39.696Z,9020
2016-10-04T07:36:39.330Z,7680
2016-10-04T07:37:38.921Z,6824
2016-10-04T07:38:40.087Z,6292
2016-10-04T07:39:40.321Z,7460
2016-10-04T07:40:39.632Z,8800
2016-10-04T07:41:39.655Z,9344
2016-10-04T07:42:38.856Z,9364
2016-10-04T07:43:39.473Z,8176
2016-10-04T07:44:38.778Z,8512
2016-10-04T07:45:39.996Z,9112
2016-10-04T07:46:39.122Z,8184
2016-10-04T07:47:39.424Z,8064
2016-10-04T07:48:40.057Z,7764
2016-10-04T07:49:39.572Z,8212
2016-10-04T07:50:40.949Z,8288
2016-10-04T07:51:39.313Z,8048
2016-10-04T07:52:39.851Z,7884
2016-10-04T07:53:39.602Z,9448
2016-10-04T07:54:39.959Z,9852
2016-10-04T07:55:40.558Z,8804
2016-10-04T07:56:39.741Z,9584
2016-10-04T07:57:39.790Z,9948
2016-10-04T07:58:40.094Z,9168
2016-10-04T07:59:39.500Z,9228
2016-10-04T08:00:40.211Z,8796
2016-10-04T08:01:40.235Z,8916
2016-10-04T08:02:39.776Z,9420
2016-10-04T08:03:41.103Z,10140
2016-10-04T08:04:40.607Z,8952
2016-10-04T08:05:41.140Z,7288
2016-10-04T08:06:39.993Z,6068
2016-10-04T08:07:40.719Z,6184
2016-10-04T08:08:42.192Z,7024
2016-10-04T08:09:40.629Z,6964
2016-10-04T08:10:40.538Z,6872
2016-10-04T08:11:39.777Z,6656
2016-10-04T08:12:40.370Z,7376
2016-10-04T08:13:39.947Z,8444
2016-10-04T08:14:40.268Z,10508
2016-10-04T08:15:40.541Z,13076
2016-10-04T08:16:40.130Z,14492
2016-10-04T08:17:40.506Z,14556
2016-10-04T08:18:40.297Z,13412
2016-10-04T08:19:40.513Z,11840
2016-10-04T08:20:41.322Z,9752
2016-10-04T08:21:40.851Z,11276
2016-10-04T08:22:41.891Z,12540
2016-10-04T08:23:40.204Z,11680
2016-10-04T08:24:40.210Z,11684
2016-10-04T08:25:40.448Z,14080
2016-10-04T08:26:39.566Z,15008
2016-10-04T08:27:40.916Z,12120
2016-10-04T08:28:40.428Z,8360
2016-10-04T08:29:40.614Z,7472
2016-10-04T08:30:41.819Z,9920
2016-10-04T08:31:40.177Z,13320
2016-10-04T08:32:40.582Z,13488
2016-10-04T08:33:41.486Z,11700
2016-10-04T08:34:41.282Z,13732
2016-10-04T08:35:40.272Z,17888
2016-10-04T08:36:40.864Z,23552
2016-10-04T08:37:40.283Z,21248
2016-10-04T08:38:40.914Z,19584
2016-10-04T08:39:41.003Z,20640
2016-10-04T08:40:40.325Z,21664
2016-10-04T08:41:40.452Z,19584
2016-10-04T08:42:41.416Z,19168
2016-10-04T08:43:41.566Z,18880
2016-10-04T08:44:40.872Z,17344
2016-10-04T08:45:40.664Z,17280
2016-10-04T08:46:40.254Z,17632
2016-10-04T08:47:40.994Z,17472
2016-10-04T08:48:40.297Z,20160
2016-10-04T08:49:40.148Z,21184
2016-10-04T08:50:40.733Z,20320
2016-10-04T08:51:40.752Z,20160
2016-10-04T08:52:41.677Z,20000
2016-10-04T08:53:41.063Z,16212
2016-10-04T08:54:42.154Z,14008
2016-10-04T08:55:40.584Z,13292
2016-10-04T08:56:40.727Z,12016
2016-10-04T08:57:40.720Z,10028
2016-10-04T08:58:41.118Z,8232
2016-10-04T08:59:41.269Z,7360
2016-10-04T09:00:41.207Z,6984
2016-10-04T09:01:41.072Z,6252
2016-10-04T09:02:41.514Z,6564
2016-10-04T09:03:41.335Z,7808
2016-10-04T09:04:40.639Z,8332
2016-10-04T09:05:41.835Z,8556
2016-10-04T09:06:41.403Z,9280
2016-10-04T09:07:40.979Z,9804
2016-10-04T09:08:41.550Z,9784
2016-10-04T09:09:41.411Z,10164
2016-10-04T09:10:41.962Z,11280
2016-10-04T09:11:40.965Z,10992
2016-10-04T09:12:41.538Z,10668
2016-10-04T09:13:41.526Z,11316
2016-10-04T09:14:40.803Z,12192
2016-10-04T09:15:42.472Z,15148
2016-10-04T09:16:41.769Z,13768
2016-10-04T09:17:41.100Z,18240
2016-10-04T09:18:41.701Z,22400
2016-10-04T09:19:41.723Z,18720
2016-10-04T09:20:41.593Z,12312
2016-10-04T09:21:40.638Z,14100
2016-10-04T09:22:41.027Z,9820
2016-10-04T09:23:41.391Z,14336
2016-10-04T09:24:40.909Z,13580
2016-10-04T09:25:41.179Z,15444
2016-10-04T09:26:42.292Z,15948
2016-10-04T09:27:41.427Z,16960
2016-10-04T09:28:40.730Z,17440
2016-10-04T09:29:41.875Z,15892
2016-10-04T09:30:42.291Z,8332
2016-10-04T09:31:42.129Z,10380
2016-10-04T09:32:41.424Z,9952
2016-10-04T09:33:42.606Z,9880
2016-10-04T09:34:41.146Z,9852
2016-10-04T09:35:42.314Z,9816
2016-10-04T09:36:41.711Z,9644
2016-10-04T09:37:42.023Z,9280
2016-10-04T09:38:41.682Z,9200
2016-10-04T09:39:41.865Z,9200
2016-10-04T09:40:42.031Z,9564
2016-10-04T09:41:42.039Z,10596
2016-10-04T09:42:41.319Z,11628
2016-10-04T09:43:42.323Z,10800
2016-10-04T09:44:42.182Z,9996
2016-10-04T09:45:42.133Z,10092
2016-10-04T09:46:42.321Z,10412
2016-10-04T09:47:41.598Z,11288
2016-10-04T09:48:41.708Z,8048
2016-10-04T09:49:42.113Z,7804
2016-10-04T09:50:41.611Z,8112
2016-10-04T09:51:43.523Z,8464
2016-10-04T09:52:42.355Z,10668
2016-10-04T09:53:41.956Z,11708
2016-10-04T09:54:42.687Z,8068
2016-10-04T09:55:42.001Z,6644
2016-10-04T09:56:42.191Z,7464
2016-10-04T09:57:42.630Z,7452
2016-10-04T09:58:42.556Z,7148
2016-10-04T09:59:43.127Z,7308
2016-10-04T10:00:42.078Z,8264
2016-10-04T10:01:42.127Z,9716
2016-10-04T10:02:43.410Z,10400
2016-10-04T10:03:42.573Z,9756
2016-10-04T10:04:43.028Z,8088
2016-10-04T10:05:42.559Z,7020
2016-10-04T10:06:43.368Z,11480
2016-10-04T10:07:42.589Z,11540
2016-10-04T10:08:42.769Z,12296
2016-10-04T10:09:42.533Z,13212
2016-10-04T10:10:43.526Z,14288
2016-10-04T10:11:42.288Z,11724
2016-10-04T10:12:42.647Z,10676
2016-10-04T10:13:43.097Z,11388
2016-10-04T10:14:42.802Z,11788
2016-10-04T10:15:42.878Z,12524
2016-10-04T10:16:42.678Z,14056
2016-10-04T10:17:43.237Z,13424
2016-10-04T10:18:42.533Z,11780
2016-10-04T10:19:44.992Z,12380
2016-10-04T10:20:42.147Z,12428
2016-10-04T10:21:42.397Z,11200
2016-10-04T10:22:42.511Z,7008
2016-10-04T10:23:43.987Z,7248
2016-10-04T10:24:43.013Z,10136
2016-10-04T10:25:43.015Z,9524
2016-10-04T10:26:43.266Z,7984
2016-10-04T10:27:43.328Z,8644
2016-10-04T10:28:42.304Z,9980
2016-10-04T10:29:43.140Z,7744
2016-10-04T10:30:44.007Z,7156
2016-10-04T10:31:42.984Z,6936
2016-10-04T10:32:43.119Z,6888
2016-10-04T10:33:43.849Z,6612
2016-10-04T10:34:44.304Z,6316
2016-10-04T10:35:45.107Z,5840
2016-10-04T10:36:43.853Z,5428
2016-10-04T10:37:43.572Z,5268
2016-10-04T10:38:43.770Z,8012
2016-10-04T10:39:43.573Z,9472
2016-10-04T10:40:43.932Z,9676
2016-10-04T10:41:44.013Z,10212
2016-10-04T10:42:44.421Z,10952
2016-10-04T10:43:43.258Z,10928
2016-10-04T10:44:43.793Z,9872
2016-10-04T10:45:43.339Z,10020
2016-10-04T10:46:44.207Z,9780
2016-10-04T10:47:43.215Z,10520
2016-10-04T10:48:43.764Z,11460
2016-10-04T10:49:43.524Z,10728
2016-10-04T10:50:44.495Z,9684
2016-10-04T10:51:43.617Z,9368
2016-10-04T10:52:44.979Z,9396
2016-10-04T10:53:44.481Z,9360
2016-10-04T10:54:43.475Z,9360
2016-10-04T10:55:43.902Z,9328
2016-10-04T10:56:44.141Z,9388
2016-10-04T10:57:43.600Z,9452
2016-10-04T10:58:44.799Z,9384
2016-10-04T10:59:44.828Z,9376
2016-10-04T11:00:44.424Z,9476
2016-10-04T11:01:45.356Z,9520
2016-10-04T11:02:44.373Z,9716
2016-10-04T11:03:44.972Z,10296
2016-10-04T11:04:44.301Z,10776
2016-10-04T11:05:43.530Z,11348
2016-10-04T11:06:45.749Z,10716
2016-10-04T11:07:44.927Z,9660
2016-10-04T11:08:44.985Z,9440
2016-10-04T11:09:43.779Z,9704
2016-10-04T11:10:44.534Z,10492
2016-10-04T11:11:43.443Z,12088
2016-10-04T11:12:44.426Z,14296
2016-10-04T11:13:45.893Z,16396
2016-10-04T11:14:44.442Z,18528
2016-10-04T11:15:44.838Z,17984
2016-10-04T11:16:44.378Z,15416
2016-10-04T11:17:45.148Z,13564
2016-10-04T11:18:44.705Z,11896
2016-10-04T11:19:44.506Z,10756
2016-10-04T11:20:45.429Z,10520
2016-10-04T11:21:44.384Z,10516
2016-10-04T11:22:45.767Z,10140
2016-10-04T11:23:45.309Z,10344
2016-10-04T11:24:44.391Z,10128
2016-10-04T11:25:45.235Z,9988
2016-10-04T11:26:44.828Z,10200
2016-10-04T11:27:45.750Z,10616
2016-10-04T11:28:46.145Z,10768
2016-10-04T11:29:45.602Z,10584
2016-10-04T11:30:44.988Z,10784
2016-10-04T11:31:45.215Z,11060
2016-10-04T11:32:45.618Z,11324
2016-10-04T11:33:44.843Z,11656
2016-10-04T11:34:45.363Z,12216
2016-10-04T11:35:44.956Z,12940
2016-10-04T11:36:45.777Z,13196
2016-10-04T11:37:44.735Z,13148
2016-10-04T11:38:45.332Z,13388
2016-10-04T11:39:45.002Z,13676
2016-10-04T11:40:45.833Z,14084
2016-10-04T11:41:45.121Z,14340
2016-10-04T11:42:45.190Z,14712
2016-10-04T11:43:44.650Z,14572
2016-10-04T11:44:44.516Z,13360
2016-10-04T11:45:45.475Z,12872
2016-10-04T11:46:44.699Z,13252
2016-10-04T11:47:45.459Z,13140
2016-10-04T11:48:45.476Z,13796
2016-10-04T11:49:45.389Z,15056
2016-10-04T11:50:46.465Z,15328
2016-10-04T11:51:45.274Z,14660
2016-10-04T11:52:45.627Z,12372
2016-10-04T11:53:45.962Z,10600
2016-10-04T11:54:45.297Z,11452
2016-10-04T11:55:45.628Z,11080
2016-10-04T11:56:45.069Z,12892
2016-10-04T11:57:46.289Z,13196
2016-10-04T11:58:46.166Z,9044
2016-10-04T11:59:45.604Z,9552
2016-10-04T12:00:45.379Z,10404
2016-10-04T12:01:46.336Z,15432
2016-10-04T12:02:46.203Z,17536
2016-10-04T12:03:46.940Z,15220
2016-10-04T12:04:45.541Z,17312
2016-10-04T12:05:47.322Z,18240
2016-10-04T12:06:46.393Z,19168
2016-10-04T12:07:45.426Z,22624
2016-10-04T12:08:45.836Z,19040
2016-10-04T12:09:46.950Z,18048
2016-10-04T12:10:45.674Z,17600
2016-10-04T12:11:46.526Z,17280
2016-10-04T12:12:45.531Z,19392
2016-10-04T12:13:46.427Z,14324
2016-10-04T12:14:46.383Z,14044
2016-10-04T12:15:45.809Z,13868
2016-10-04T12:16:46.123Z,13868
2016-10-04T12:17:45.336Z,13388
2016-10-04T12:18:47.840Z,13068
2016-10-04T12:19:46.804Z,13072
2016-10-04T12:20:47.513Z,13868
2016-10-04T12:21:45.932Z,18624
2016-10-04T12:22:45.936Z,18464
2016-10-04T12:23:46.480Z,17248
2016-10-04T12:24:46.064Z,12908
2016-10-04T12:25:46.868Z,13376
2016-10-04T12:26:47.714Z,13380
2016-10-04T12:27:46.503Z,13944
2016-10-04T12:28:46.647Z,18336
2016-10-04T12:29:46.919Z,17824
2016-10-04T12:30:47.184Z,15568
2016-10-04T12:31:46.862Z,13344
2016-10-04T12:32:46.267Z,12572
2016-10-04T12:33:47.160Z,14804
2016-10-04T12:34:46.172Z,11880
2016-10-04T12:35:46.444Z,12392
2016-10-04T12:36:46.526Z,12360
2016-10-04T12:37:46.288Z,11596
2016-10-04T12:38:47.497Z,15316
2016-10-04T12:39:46.563Z,11096
2016-10-04T12:40:46.828Z,10628
2016-10-04T12:41:47.050Z,13084
2016-10-04T12:42:46.535Z,13112
2016-10-04T12:43:47.409Z,11404
2016-10-04T12:44:47.055Z,16800
2016-10-04T12:45:46.284Z,19808
2016-10-04T12:46:46.968Z,18368
2016-10-04T12:47:46.854Z,17280
2016-10-04T12:48:46.655Z,17408
2016-10-04T12:49:46.847Z,17184
2016-10-04T12:50:46.583Z,19552
2016-10-04T12:51:48.311Z,15544
2016-10-04T12:52:46.571Z,15500
2016-10-04T12:53:47.782Z,15644
2016-10-04T12:54:46.681Z,15636
2016-10-04T12:55:47.348Z,14756
2016-10-04T12:56:46.593Z,14612
2016-10-04T12:57:47.783Z,13996
2016-10-04T12:58:46.920Z,14108
2016-10-04T12:59:46.998Z,14668
2016-10-04T13:00:47.096Z,14800
2016-10-04T13:01:47.258Z,14192
2016-10-04T13:02:47.256Z,12888
2016-10-04T13:03:47.700Z,12288
2016-10-04T13:04:47.486Z,11432
2016-10-04T13:05:46.969Z,10180
2016-10-04T13:06:46.774Z,9604
2016-10-04T13:07:48.432Z,7828
2016-10-04T13:08:47.343Z,7344
2016-10-04T13:09:48.003Z,7472
2016-10-04T13:10:47.211Z,8500
2016-10-04T13:11:47.242Z,9148
2016-10-04T13:12:47.149Z,8896
2016-10-04T13:13:47.181Z,12028
2016-10-04T13:14:47.637Z,14324
2016-10-04T13:15:47.119Z,10164
2016-10-04T13:16:48.198Z,9668
2016-10-04T13:17:47.559Z,9788
2016-10-04T13:18:47.736Z,9760
2016-10-04T13:19:47.315Z,7700
2016-10-04T13:20:48.868Z,6052
2016-10-04T13:21:46.760Z,5268
2016-10-04T13:22:47.332Z,4884
2016-10-04T13:23:47.359Z,4724
2016-10-04T13:24:47.847Z,4552
2016-10-04T13:25:48.531Z,4504
2016-10-04T13:26:47.536Z,7472
2016-10-04T13:27:47.139Z,7896
2016-10-04T13:28:48.713Z,8000
2016-10-04T13:29:47.556Z,7900
2016-10-04T13:30:49.377Z,7896
2016-10-04T13:31:48.544Z,7820
2016-10-04T13:32:47.786Z,7780
2016-10-04T13:33:47.975Z,7764
2016-10-04T13:34:48.577Z,7820
2016-10-04T13:35:48.312Z,8000
2016-10-04T13:36:48.240Z,8156
2016-10-04T13:37:48.513Z,8216
2016-10-04T13:38:49.340Z,8360
2016-10-04T13:39:48.322Z,8704
2016-10-04T13:40:48.711Z,9200
2016-10-04T13:41:48.399Z,9404
2016-10-04T13:42:47.614Z,9672
2016-10-04T13:43:48.459Z,9924
2016-10-04T13:44:48.904Z,9908